Monday, December 17, 2018, 5:20 AM EST
Back to Local

KDAA, Fort Belvoir

Location: Fort Belvoir, VA, United States Lat: 38.717
Local Time: 5:20 AM EST (10:20 GMT) Lon: -77.183
Time Zone: US/Eastern Elev: 68 ft

Show me the last for .
Show Decoded

2018-12-17 04:56 METAR KDAA 170956Z AUTO 00000KT 8SM CLR 02/01 A2988 RMK AO2 SLP122 T00150008
                 TSNO $ =
2018-12-17 03:56 METAR KDAA 170856Z AUTO 00000KT 10SM CLR 02/02 A2990 RMK AO2 SLP129 T00240015
                 57004 TSNO $ =
2018-12-17 02:56 METAR KDAA 170756Z AUTO 00000KT 10SM CLR 04/03 A2991 RMK AO2 SLP132 T00400030
                 TSNO $ =
2018-12-17 01:56 METAR KDAA 170656Z AUTO 00000KT 10SM OVC034 06/04 A2991 RMK AO2 SLP132 T00580043
                 TSNO $ =
2018-12-17 00:56 METAR KDAA 170556Z AUTO 00000KT 10SM OVC035 06/04 A2991 RMK AO2 SLP132 T00620037
                 10063 20057 58004 TSNO $ =
2018-12-16 23:56 METAR KDAA 170456Z AUTO 29006KT 10SM OVC032 06/03 A2991 RMK AO2 SLP132 T00620032
                 401000056 TSNO $ =
2018-12-16 22:56 METAR KDAA 170356Z AUTO 30005KT 10SM OVC031 06/03 A2992 RMK AO2 SLP135 T00610031
                 TSNO $ =
2018-12-16 21:56 METAR KDAA 170256Z AUTO 29006KT 10SM OVC035 06/03 A2992 RMK AO2 SLP135 T00580026
                 50003 TSNO $ =
2018-12-16 20:56 METAR KDAA 170156Z AUTO 31007KT 10SM OVC038 06/03 A2993 RMK AO2 SLP139 T00570030
                 TSNO $ =
2018-12-16 20:31 METAR KDAA 170131Z AUTO 32005KT 10SM SCT014 OVC042 06/03 A2993 RMK AO2 SLP139
                 TSNO $ =
2018-12-16 19:56 METAR KDAA 170056Z AUTO 32007KT 10SM OVC014 06/03 A2992 RMK AO2 SLP135 T00580031
                 TSNO $ =
2018-12-16 19:31 METAR KDAA 170031Z AUTO 32008KT 10SM BKN014 OVC043 06/03 A2992 RMK AO2 SLP135
                 TSNO $ =
2018-12-16 19:26 METAR KDAA 170026Z AUTO 32005KT 10SM BKN016 OVC043 06/03 A2992 RMK AO2 CIG
                 016V029 SLP135 TSNO $ =
2018-12-16 18:56 METAR KDAA 162356Z AUTO 32008KT 10SM SCT015 BKN024 OVC031 06/03 A2991 RMK AO2
                 SLP132 60001 T00600032 10075 20056 52016 TSNO $ =
2018-12-16 18:51 METAR KDAA 162351Z AUTO 33006KT 10SM SCT015 BKN024 OVC031 06/03 A2991 RMK AO2
                 CIG 015V024 SLP132 TSNO $ =
2018-12-16 18:41 METAR KDAA 162341Z AUTO 31009KT 10SM BKN015 BKN021 OVC031 06/03 A2991 RMK AO2
                 CIG 015V031 SLP132 TSNO $ =
2018-12-16 18:36 METAR KDAA 162336Z AUTO 32008KT 10SM SCT018 OVC031 06/03 A2991 RMK AO2 SLP132
                 TSNO $ =
2018-12-16 17:56 METAR KDAA 162256Z AUTO 31007KT 10SM FEW013 BKN026 OVC037 06/03 A2990 RMK AO2
                 SLP129 T00570034 TSNO $ =
2018-12-16 17:41 METAR KDAA 162241Z AUTO 32009KT 10SM SCT013 BKN028 OVC037 06/03 A2989 RMK AO2
                 CIG 012V028 SLP125 TSNO $ =
2018-12-16 16:56 METAR KDAA 162156Z AUTO 32006KT 10SM OVC011 06/04 A2989 RMK AO2 SLP125 T00590037
                 TSNO $ =
2018-12-16 15:56 METAR KDAA 162056Z AUTO 32007KT 10SM OVC010 06/04 A2987 RMK AO2 RAE16DZB32E42
                 SLP118 P0000 60001 T00590037 52016 TSNO $ =
2018-12-16 15:52 METAR KDAA 162052Z AUTO 32010G16KT 10SM OVC010 06/04 A2987 RMK AO2 RAE16DZB32E42
                 SLP118 TSNO $ =
2018-12-16 15:42 METAR KDAA 162042Z AUTO 32010G16KT 10SM OVC009 06/04 A2986 RMK AO2 RAE16DZB32E42
                 SLP115 TSNO $ =
2018-12-16 15:32 METAR KDAA 162032Z AUTO 32010KT 10SM -DZ OVC008 06/04 A2986 RMK AO2 RAE16DZB32
                 SLP115 TSNO $ =
2018-12-16 15:16 METAR KDAA 162016Z AUTO 32009KT 10SM OVC008 06/04 A2986 RMK AO2 RAE16 SLP115
                 TSNO $ =
2018-12-16 14:56 METAR KDAA 161956Z AUTO 31011KT 10SM -RA OVC009 06/05 A2985 RMK AO2
                 DZB10E11RAB11E26DZB35E36RAB36 SLP112 P0001 T00630046 TSNO $ =
2018-12-16 14:50 METAR KDAA 161950Z AUTO 32010KT 10SM -RA OVC009 06/05 A2985 RMK AO2
                 DZB10E11RAB11E26DZB35E36RAB36 SLP112 TSNO $ =
2018-12-16 14:35 METAR KDAA 161935Z AUTO 32007KT 10SM -DZ OVC011 07/05 A2984 RMK AO2
                 DZB10E11RAB11E26DZB35 SLP108 TSNO $ =
2018-12-16 14:26 METAR KDAA 161926Z AUTO 32007KT 10SM OVC011 07/05 A2983 RMK AO2 DZB10E11RAB11E26
                 SLP105 TSNO $ =
2018-12-16 14:10 METAR KDAA 161910Z AUTO 33007G15KT 10SM -DZ OVC012 07/05 A2983 RMK AO2 DZB10
                 SLP105 TSNO $ =
2018-12-16 13:56 METAR KDAA 161856Z AUTO 32010KT 10SM OVC012 07/05 A2983 RMK AO2 RAE10DZB10E14
                 SLP105 P0000 T00720048 TSNO $ =
2018-12-16 13:14 METAR KDAA 161814Z AUTO 33007KT 10SM BKN012 BKN027 07/05 A2982 RMK AO2
                 RAE10DZB10E14 SLP101 TSNO $ =
2018-12-16 12:56 METAR KDAA 161756Z AUTO 33007KT 10SM -RA BKN012 BKN019 07/05 A2982 RMK AO2
                 SLP101 P0003 60017 T00700053 10079 20067 57016 TSNO $ =
2018-12-16 11:56 METAR KDAA 161656Z AUTO 34008KT 9SM RA BKN010 OVC018 07/05 A2984 RMK AO2 SLP108
                 P0009 T00680053 TSNO $ =
2018-12-16 11:31 METAR KDAA 161631Z AUTO 34007KT 10SM RA OVC010 07/06 A2985 RMK AO2 CIG 008V010
                 SLP112 TSNO $ =
2018-12-16 10:56 METAR KDAA 161556Z AUTO 34006KT 10SM -RA BKN009 OVC014 07/06 A2986 RMK AO2
                 RAE1457RAB15 CIG 007V009 SLP115 P0001 T00740060 TSNO $ =
2018-12-16 10:55 METAR KDAA 161555Z AUTO 33007KT 10SM -RA BKN009 OVC014 07/06 A2986 RMK AO2
                 RAE1457RAB15 CIG 007V009 SLP115 TSNO $ =
2018-12-16 10:15 METAR KDAA 161515Z AUTO 36006KT 10SM -RA OVC007 07/06 A2987 RMK AO2 RAE1457RAB15
                 OVC V BKN SLP118 TSNO $ =
2018-12-16 09:57 METAR KDAA 161457Z AUTO 36004KT 10SM BKN007 OVC013 07/06 A2987 RMK AO2 RAE57
                 SLP118 TSNO $ =
2018-12-16 09:56 METAR KDAA 161456Z AUTO 35005KT 10SM -RA BKN007 OVC013 07/06 A2987 RMK AO2 RAB18
                 SLP118 P0002 60004 T00730062 55000 TSNO $ =
2018-12-16 09:38 METAR KDAA 161438Z AUTO 34005KT 10SM -RA BKN007 OVC012 07/06 A2987 RMK AO2 RAB18
                 BKN V OVC SLP118 TSNO $ =
2018-12-16 09:18 METAR KDAA 161418Z AUTO 01005KT 8SM -RA OVC006 08/06 A2988 RMK AO2 RAB18 SLP122
                 TSNO $ =
2018-12-16 08:56 METAR KDAA 161356Z AUTO 35004KT 7SM BKN006 OVC011 08/06 A2987 RMK AO2 DZE17
                 SLP118 P0001 T00750064 TSNO $ =
2018-12-16 08:27 METAR KDAA 161327Z AUTO 36003KT 7SM BKN006 OVC012 08/07 A2987 RMK AO2 DZE17
                 SLP118 TSNO $ =
2018-12-16 08:17 METAR KDAA 161317Z AUTO 35005KT 6SM BR BKN005 OVC012 08/07 A2987 RMK AO2 DZE17
                 SLP118 TSNO $ =
2018-12-16 07:56 METAR KDAA 161256Z AUTO 01003KT 5SM -DZ BR BKN005 OVC011 08/07 A2986 RMK AO2
                 RAB19E41DZB41E44DZB45 BKN V OVC SLP115 P0001 T00760067 TSNO $ =
2018-12-16 07:45 METAR KDAA 161245Z AUTO 35005KT 5SM -DZ BR OVC005 08/07 A2986 RMK AO2
                 RAB19E41DZB41E44DZB45 OVC V BKN SLP115 TSNO $ =
2018-12-16 07:44 METAR KDAA 161244Z AUTO 36005KT 6SM BR OVC005 08/07 A2986 RMK AO2
                 RAB19E41DZB41E44 OVC V BKN SLP115 TSNO $ =
2018-12-16 07:19 METAR KDAA 161219Z AUTO 00000KT 6SM -RA BR OVC005 08/07 A2987 RMK AO2 RAB19 OVC
                 V BKN SLP118 TSNO $ =
2018-12-16 06:56 METAR KDAA 161156Z AUTO 01004KT 5SM BR OVC005 08/07 A2987 RMK AO2 DZE33DZB35E50
                 SLP118 P0001 60003 70228 T00800069 10097 20080 53004 TSNO $ =
2018-12-16 06:50 METAR KDAA 161150Z AUTO 02003KT 5SM BR OVC005 08/07 A2987 RMK AO2 DZE33DZB35E50
                 SLP118 TSNO $ =
2018-12-16 06:35 METAR KDAA 161135Z AUTO 01004KT 5SM -DZ BR BKN005 OVC009 08/07 A2987 RMK AO2
                 DZE33DZB35 BKN V OVC SLP118 TSNO $ =
2018-12-16 06:33 METAR KDAA 161133Z AUTO 00000KT 5SM BR BKN005 OVC009 08/07 A2986 RMK AO2 DZE33
                 BKN V OVC SLP115 TSNO $ =
2018-12-16 06:01 METAR KDAA 161101Z AUTO 02003KT 4SM -DZ BR BKN005 OVC011 09/08 A2986 RMK AO2 CIG
                 005V011 BKN V SCT SLP115 TSNO $ =
2018-12-16 05:56 METAR KDAA 161056Z AUTO 00000KT 4SM -DZ BR SCT005 OVC011 09/08 A2986 RMK AO2
                 DZB32 CIG 006V011 SLP115 P0000 T00870078 TSNO $ =
2018-12-16 05:32 METAR KDAA 161032Z AUTO 03004KT 6SM -DZ BR OVC006 09/08 A2986 RMK AO2 DZB32 OVC
                 V BKN SLP115 TSNO $ =

Support USWX by starting your Amazon purchase here.